sensor_id;sensor_type;location;lat;lon;timestamp;temperature;humidity
4701;DHT22;8724;51.272;6.554;2023-03-01T00:01:21;6.10;99.90
4701;DHT22;8724;51.272;6.554;2023-03-01T00:03:49;5.90;99.90
4701;DHT22;8724;51.272;6.554;2023-03-01T00:06:19;6.20;99.90
4701;DHT22;8724;51.272;6.554;2023-03-01T00:08:48;6.10;99.90
4701;DHT22;8724;51.272;6.554;2023-03-01T00:11:18;6.10;99.90
4701;DHT22;8724;51.272;6.554;2023-03-01T00:13:48;6.10;99.90
4701;DHT22;8724;51.272;6.554;2023-03-01T00:16:20;6.10;99.90
4701;DHT22;8724;51.272;6.554;2023-03-01T00:18:48;6.10;99.90
4701;DHT22;8724;51.272;6.554;2023-03-01T00:21:17;6.10;99.90
4701;DHT22;8724;51.272;6.554;2023-03-01T00:23:48;6.10;99.90
4701;DHT22;8724;51.272;6.554;2023-03-01T00:26:18;5.60;99.90
4701;DHT22;8724;51.272;6.554;2023-03-01T00:28:47;6.10;99.90
4701;DHT22;8724;51.272;6.554;2023-03-01T00:31:19;6.10;99.90
4701;DHT22;8724;51.272;6.554;2023-03-01T00:33:47;6.10;99.90
4701;DHT22;8724;51.272;6.554;2023-03-01T00:36:16;6.00;99.90
4701;DHT22;8724;51.272;6.554;2023-03-01T00:38:45;6.00;99.90
4701;DHT22;8724;51.272;6.554;2023-03-01T00:41:15;6.00;99.90
4701;DHT22;8724;51.272;6.554;2023-03-01T00:43:44;6.00;99.90
4701;DHT22;8724;51.272;6.554;2023-03-01T00:46:14;6.00;99.90
4701;DHT22;8724;51.272;6.554;2023-03-01T00:48:45;6.00;99.90
4701;DHT22;8724;51.272;6.554;2023-03-01T00:51:14;6.00;99.90
4701;DHT22;8724;51.272;6.554;2023-03-01T00:53:43;6.00;99.90
4701;DHT22;8724;51.272;6.554;2023-03-01T00:56:13;5.90;99.90
4701;DHT22;8724;51.272;6.554;2023-03-01T00:58:43;5.90;99.90
4701;DHT22;8724;51.272;6.554;2023-03-01T01:01:14;5.90;99.90
4701;DHT22;8724;51.272;6.554;2023-03-01T01:03:48;6.10;99.90
4701;DHT22;8724;51.272;6.554;2023-03-01T01:06:18;5.90;99.90
4701;DHT22;8724;51.272;6.554;2023-03-01T01:08:50;5.90;99.90
4701;DHT22;8724;51.272;6.554;2023-03-01T01:11:20;5.80;99.90
4701;DHT22;8724;51.272;6.554;2023-03-01T01:13:48;5.80;99.90
4701;DHT22;8724;51.272;6.554;2023-03-01T01:16:18;5.80;99.90
4701;DHT22;8724;51.272;6.554;2023-03-01T01:18:47;5.80;99.90
4701;DHT22;8724;51.272;6.554;2023-03-01T01:21:18;5.80;99.90
4701;DHT22;8724;51.272;6.554;2023-03-01T01:23:47;5.80;99.90
4701;DHT22;8724;51.272;6.554;2023-03-01T01:26:16;5.80;99.90
4701;DHT22;8724;51.272;6.554;2023-03-01T01:28:47;5.80;99.90
4701;DHT22;8724;51.272;6.554;2023-03-01T01:31:15;5.80;99.90
4701;DHT22;8724;51.272;6.554;2023-03-01T01:33:44;5.40;99.90
4701;DHT22;8724;51.272;6.554;2023-03-01T01:36:14;5.70;99.90
4701;DHT22;8724;51.272;6.554;2023-03-01T01:38:42;5.70;99.90
4701;DHT22;8724;51.272;6.554;2023-03-01T01:41:12;5.90;99.90
4701;DHT22;8724;51.272;6.554;2023-03-01T01:43:42;5.80;99.90
4701;DHT22;8724;51.272;6.554;2023-03-01T01:46:19;5.70;99.90
4701;DHT22;8724;51.272;6.554;2023-03-01T01:48:53;5.70;99.90
4701;DHT22;8724;51.272;6.554;2023-03-01T01:51:27;5.70;99.90
4701;DHT22;8724;51.272;6.554;2023-03-01T01:53:59;5.40;99.90
4701;DHT22;8724;51.272;6.554;2023-03-01T01:56:29;5.70;99.90
4701;DHT22;8724;51.272;6.554;2023-03-01T01:58:58;5.60;99.90
4701;DHT22;8724;51.272;6.554;2023-03-01T02:01:27;5.70;99.90
4701;DHT22;8724;51.272;6.554;2023-03-01T02:03:55;5.60;99.90
4701;DHT22;8724;51.272;6.554;2023-03-01T02:06:29;5.70;99.90
4701;DHT22;8724;51.272;6.554;2023-03-01T02:09:03;5.60;99.90
4701;DHT22;8724;51.272;6.554;2023-03-01T02:11:34;5.60;99.90
4701;DHT22;8724;51.272;6.554;2023-03-01T02:14:05;5.60;99.90
4701;DHT22;8724;51.272;6.554;2023-03-01T02:16:33;5.60;99.90
4701;DHT22;8724;51.272;6.554;2023-03-01T02:19:03;5.60;99.90
4701;DHT22;8724;51.272;6.554;2023-03-01T02:21:42;5.60;99.90
4701;DHT22;8724;51.272;6.554;2023-03-01T02:24:21;5.60;99.90
4701;DHT22;8724;51.272;6.554;2023-03-01T02:26:56;5.50;99.90
4701;DHT22;8724;51.272;6.554;2023-03-01T02:29:28;5.80;99.90
4701;DHT22;8724;51.272;6.554;2023-03-01T02:31:58;5.50;99.90
4701;DHT22;8724;51.272;6.554;2023-03-01T02:34:28;5.50;99.90
4701;DHT22;8724;51.272;6.554;2023-03-01T02:37:00;5.50;99.90
4701;DHT22;8724;51.272;6.554;2023-03-01T02:39:33;5.50;99.90
4701;DHT22;8724;51.272;6.554;2023-03-01T02:42:03;5.40;99.90
4701;DHT22;8724;51.272;6.554;2023-03-01T02:44:33;5.40;99.90
4701;DHT22;8724;51.272;6.554;2023-03-01T02:47:02;5.50;99.90
4701;DHT22;8724;51.272;6.554;2023-03-01T02:49:33;5.40;99.90
4701;DHT22;8724;51.272;6.554;2023-03-01T02:52:26;5.40;99.90
4701;DHT22;8724;51.272;6.554;2023-03-01T02:55:00;5.40;99.90
4701;DHT22;8724;51.272;6.554;2023-03-01T02:57:31;5.40;99.90
4701;DHT22;8724;51.272;6.554;2023-03-01T03:00:03;5.40;99.90
4701;DHT22;8724;51.272;6.554;2023-03-01T03:02:35;5.30;99.90
4701;DHT22;8724;51.272;6.554;2023-03-01T03:05:16;5.30;99.90
4701;DHT22;8724;51.272;6.554;2023-03-01T03:07:47;5.30;99.90
4701;DHT22;8724;51.272;6.554;2023-03-01T03:10:20;5.30;99.90
4701;DHT22;8724;51.272;6.554;2023-03-01T03:12:50;5.30;99.90
4701;DHT22;8724;51.272;6.554;2023-03-01T03:15:21;5.30;99.90
4701;DHT22;8724;51.272;6.554;2023-03-01T03:17:51;5.30;99.90
4701;DHT22;8724;51.272;6.554;2023-03-01T03:20:21;5.20;99.90
4701;DHT22;8724;51.272;6.554;2023-03-01T03:22:52;5.60;99.90
4701;DHT22;8724;51.272;6.554;2023-03-01T03:25:21;5.20;99.90
4701;DHT22;8724;51.272;6.554;2023-03-01T03:27:51;5.20;99.90
4701;DHT22;8724;51.272;6.554;2023-03-01T03:30:26;5.20;99.90
4701;DHT22;8724;51.272;6.554;2023-03-01T03:32:56;5.20;99.90
4701;DHT22;8724;51.272;6.554;2023-03-01T03:35:26;5.20;99.90
4701;DHT22;8724;51.272;6.554;2023-03-01T03:37:59;5.60;99.90
4701;DHT22;8724;51.272;6.554;2023-03-01T03:40:35;5.20;99.90
4701;DHT22;8724;51.272;6.554;2023-03-01T03:43:05;5.20;99.90
4701;DHT22;8724;51.272;6.554;2023-03-01T03:45:36;5.10;99.90
4701;DHT22;8724;51.272;6.554;2023-03-01T03:48:06;5.20;99.90
4701;DHT22;8724;51.272;6.554;2023-03-01T03:50:36;5.10;99.90
4701;DHT22;8724;51.272;6.554;2023-03-01T03:53:07;5.10;99.90
4701;DHT22;8724;51.272;6.554;2023-03-01T03:55:36;5.10;99.90
4701;DHT22;8724;51.272;6.554;2023-03-01T03:58:08;5.20;99.90
4701;DHT22;8724;51.272;6.554;2023-03-01T04:00:40;5.20;99.90
4701;DHT22;8724;51.272;6.554;2023-03-01T04:03:09;5.10;99.90
4701;DHT22;8724;51.272;6.554;2023-03-01T04:05:41;5.10;99.90
4701;DHT22;8724;51.272;6.554;2023-03-01T04:08:09;5.10;99.90
4701;DHT22;8724;51.272;6.554;2023-03-01T04:10:39;5.10;99.90
4701;DHT22;8724;51.272;6.554;2023-03-01T04:13:11;5.10;99.90
4701;DHT22;8724;51.272;6.554;2023-03-01T04:15:41;5.10;99.90
4701;DHT22;8724;51.272;6.554;2023-03-01T04:18:12;5.10;99.90
4701;DHT22;8724;51.272;6.554;2023-03-01T04:20:42;5.00;99.90
4701;DHT22;8724;51.272;6.554;2023-03-01T04:23:13;5.00;99.90
4701;DHT22;8724;51.272;6.554;2023-03-01T04:25:47;5.00;99.90
4701;DHT22;8724;51.272;6.554;2023-03-01T04:28:21;5.00;99.90
4701;DHT22;8724;51.272;6.554;2023-03-01T04:30:53;5.00;99.90
4701;DHT22;8724;51.272;6.554;2023-03-01T04:33:22;5.00;99.90
4701;DHT22;8724;51.272;6.554;2023-03-01T04:35:51;5.00;99.90
4701;DHT22;8724;51.272;6.554;2023-03-01T04:38:20;5.00;99.90
4701;DHT22;8724;51.272;6.554;2023-03-01T04:40:49;4.90;99.90
4701;DHT22;8724;51.272;6.554;2023-03-01T04:43:17;4.90;99.90
4701;DHT22;8724;51.272;6.554;2023-03-01T04:45:45;5.30;99.90
4701;DHT22;8724;51.272;6.554;2023-03-01T04:48:15;4.90;99.90
4701;DHT22;8724;51.272;6.554;2023-03-01T04:50:43;4.90;99.90
4701;DHT22;8724;51.272;6.554;2023-03-01T04:53:12;4.90;99.90
4701;DHT22;8724;51.272;6.554;2023-03-01T04:55:40;4.90;99.90
4701;DHT22;8724;51.272;6.554;2023-03-01T04:58:08;4.90;99.90
4701;DHT22;8724;51.272;6.554;2023-03-01T05:00:37;4.90;99.90
4701;DHT22;8724;51.272;6.554;2023-03-01T05:03:05;4.90;99.90
4701;DHT22;8724;51.272;6.554;2023-03-01T05:05:37;4.90;99.90
4701;DHT22;8724;51.272;6.554;2023-03-01T05:08:07;4.80;99.90
4701;DHT22;8724;51.272;6.554;2023-03-01T05:10:36;4.80;99.90
4701;DHT22;8724;51.272;6.554;2023-03-01T05:13:05;4.80;99.90
4701;DHT22;8724;51.272;6.554;2023-03-01T05:15:34;4.80;99.90
4701;DHT22;8724;51.272;6.554;2023-03-01T05:18:03;4.80;99.90
4701;DHT22;8724;51.272;6.554;2023-03-01T05:20:39;4.80;99.90
4701;DHT22;8724;51.272;6.554;2023-03-01T05:23:08;4.80;99.90
4701;DHT22;8724;51.272;6.554;2023-03-01T05:25:36;4.80;99.90
4701;DHT22;8724;51.272;6.554;2023-03-01T05:28:11;5.10;99.90
4701;DHT22;8724;51.272;6.554;2023-03-01T05:30:40;4.80;99.90
4701;DHT22;8724;51.272;6.554;2023-03-01T05:33:09;4.80;99.90
4701;DHT22;8724;51.272;6.554;2023-03-01T05:35:42;4.80;99.90
4701;DHT22;8724;51.272;6.554;2023-03-01T05:38:12;4.80;99.90
4701;DHT22;8724;51.272;6.554;2023-03-01T05:40:41;4.80;99.90
4701;DHT22;8724;51.272;6.554;2023-03-01T05:43:12;4.80;99.90
4701;DHT22;8724;51.272;6.554;2023-03-01T05:45:40;4.80;99.90
4701;DHT22;8724;51.272;6.554;2023-03-01T05:48:09;4.70;99.90
4701;DHT22;8724;51.272;6.554;2023-03-01T05:50:40;4.70;99.90
4701;DHT22;8724;51.272;6.554;2023-03-01T05:53:13;4.70;99.90
4701;DHT22;8724;51.272;6.554;2023-03-01T05:55:42;4.90;99.90
4701;DHT22;8724;51.272;6.554;2023-03-01T05:58:13;4.70;99.90
4701;DHT22;8724;51.272;6.554;2023-03-01T06:00:43;4.70;99.90
4701;DHT22;8724;51.272;6.554;2023-03-01T06:03:13;4.70;99.90
4701;DHT22;8724;51.272;6.554;2023-03-01T06:05:43;4.70;99.90
4701;DHT22;8724;51.272;6.554;2023-03-01T06:08:13;4.70;99.90
4701;DHT22;8724;51.272;6.554;2023-03-01T06:10:41;4.70;99.90
4701;DHT22;8724;51.272;6.554;2023-03-01T06:13:10;4.70;99.90
4701;DHT22;8724;51.272;6.554;2023-03-01T06:15:38;4.70;99.90
4701;DHT22;8724;51.272;6.554;2023-03-01T06:18:06;4.70;99.90
4701;DHT22;8724;51.272;6.554;2023-03-01T06:20:35;4.70;99.90
4701;DHT22;8724;51.272;6.554;2023-03-01T06:23:03;4.60;99.90
4701;DHT22;8724;51.272;6.554;2023-03-01T06:25:33;4.60;99.90
4701;DHT22;8724;51.272;6.554;2023-03-01T06:28:01;4.70;99.90
4701;DHT22;8724;51.272;6.554;2023-03-01T06:30:31;4.70;99.90
4701;DHT22;8724;51.272;6.554;2023-03-01T06:32:59;4.60;99.90
4701;DHT22;8724;51.272;6.554;2023-03-01T06:35:29;4.60;99.90
4701;DHT22;8724;51.272;6.554;2023-03-01T06:37:59;4.60;99.90
4701;DHT22;8724;51.272;6.554;2023-03-01T06:40:29;4.70;99.90
4701;DHT22;8724;51.272;6.554;2023-03-01T06:42:59;4.60;99.90
4701;DHT22;8724;51.272;6.554;2023-03-01T06:45:27;4.60;99.90
4701;DHT22;8724;51.272;6.554;2023-03-01T06:48:03;4.60;99.90
4701;DHT22;8724;51.272;6.554;2023-03-01T06:50:33;4.60;99.90
4701;DHT22;8724;51.272;6.554;2023-03-01T06:53:02;4.60;99.90
4701;DHT22;8724;51.272;6.554;2023-03-01T06:55:31;4.60;99.90
4701;DHT22;8724;51.272;6.554;2023-03-01T06:58:01;4.60;99.90
4701;DHT22;8724;51.272;6.554;2023-03-01T07:00:31;4.60;99.90
4701;DHT22;8724;51.272;6.554;2023-03-01T07:03:00;4.60;99.90
4701;DHT22;8724;51.272;6.554;2023-03-01T07:05:30;4.60;99.90
4701;DHT22;8724;51.272;6.554;2023-03-01T07:07:58;4.60;99.90
4701;DHT22;8724;51.272;6.554;2023-03-01T07:10:27;4.50;99.90
4701;DHT22;8724;51.272;6.554;2023-03-01T07:12:56;4.60;99.90
4701;DHT22;8724;51.272;6.554;2023-03-01T07:15:27;4.60;99.90
4701;DHT22;8724;51.272;6.554;2023-03-01T07:17:56;4.70;99.90
4701;DHT22;8724;51.272;6.554;2023-03-01T07:20:24;4.60;99.90
4701;DHT22;8724;51.272;6.554;2023-03-01T07:22:53;4.60;99.90
4701;DHT22;8724;51.272;6.554;2023-03-01T07:25:22;4.60;99.90
4701;DHT22;8724;51.272;6.554;2023-03-01T07:27:50;4.60;99.90
4701;DHT22;8724;51.272;6.554;2023-03-01T07:30:19;4.60;99.90
4701;DHT22;8724;51.272;6.554;2023-03-01T07:32:49;4.60;99.90
4701;DHT22;8724;51.272;6.554;2023-03-01T07:35:21;4.60;99.90
4701;DHT22;8724;51.272;6.554;2023-03-01T07:37:50;4.60;99.90
4701;DHT22;8724;51.272;6.554;2023-03-01T07:40:19;4.60;99.90
4701;DHT22;8724;51.272;6.554;2023-03-01T07:42:47;4.60;99.90
4701;DHT22;8724;51.272;6.554;2023-03-01T07:45:15;4.60;99.90
4701;DHT22;8724;51.272;6.554;2023-03-01T07:47:44;4.60;99.90
4701;DHT22;8724;51.272;6.554;2023-03-01T07:50:14;4.70;99.90
4701;DHT22;8724;51.272;6.554;2023-03-01T07:52:44;4.70;99.90
4701;DHT22;8724;51.272;6.554;2023-03-01T07:55:13;4.70;99.90
4701;DHT22;8724;51.272;6.554;2023-03-01T07:57:41;5.00;99.90
4701;DHT22;8724;51.272;6.554;2023-03-01T08:00:11;4.70;99.90
4701;DHT22;8724;51.272;6.554;2023-03-01T08:02:40;4.70;99.90
4701;DHT22;8724;51.272;6.554;2023-03-01T08:05:09;4.70;99.90
4701;DHT22;8724;51.272;6.554;2023-03-01T08:07:39;4.80;99.90
4701;DHT22;8724;51.272;6.554;2023-03-01T08:10:09;4.80;99.90
4701;DHT22;8724;51.272;6.554;2023-03-01T08:12:37;4.80;99.90
4701;DHT22;8724;51.272;6.554;2023-03-01T08:15:07;4.80;99.90
4701;DHT22;8724;51.272;6.554;2023-03-01T08:17:35;4.80;99.90
4701;DHT22;8724;51.272;6.554;2023-03-01T08:20:04;4.90;99.90
4701;DHT22;8724;51.272;6.554;2023-03-01T08:22:34;4.90;99.90
4701;DHT22;8724;51.272;6.554;2023-03-01T08:25:04;4.90;99.90
4701;DHT22;8724;51.272;6.554;2023-03-01T08:27:33;4.90;99.90
4701;DHT22;8724;51.272;6.554;2023-03-01T08:30:01;4.90;99.90
4701;DHT22;8724;51.272;6.554;2023-03-01T08:32:29;4.90;99.90
4701;DHT22;8724;51.272;6.554;2023-03-01T08:34:58;5.00;99.90
4701;DHT22;8724;51.272;6.554;2023-03-01T08:37:26;5.00;99.90
4701;DHT22;8724;51.272;6.554;2023-03-01T08:39:58;5.00;99.90
4701;DHT22;8724;51.272;6.554;2023-03-01T08:42:28;5.10;99.90
4701;DHT22;8724;51.272;6.554;2023-03-01T08:44:56;5.10;99.90
4701;DHT22;8724;51.272;6.554;2023-03-01T08:47:25;5.10;99.90
4701;DHT22;8724;51.272;6.554;2023-03-01T08:49:54;5.10;99.90
4701;DHT22;8724;51.272;6.554;2023-03-01T08:52:22;5.10;99.90
4701;DHT22;8724;51.272;6.554;2023-03-01T08:54:51;5.10;99.90
4701;DHT22;8724;51.272;6.554;2023-03-01T08:57:19;5.20;99.90
4701;DHT22;8724;51.272;6.554;2023-03-01T08:59:49;5.20;99.90
4701;DHT22;8724;51.272;6.554;2023-03-01T09:02:18;5.20;99.90
4701;DHT22;8724;51.272;6.554;2023-03-01T09:04:47;5.20;99.90
4701;DHT22;8724;51.272;6.554;2023-03-01T09:07:16;5.30;99.90
4701;DHT22;8724;51.272;6.554;2023-03-01T09:09:44;5.30;99.90
4701;DHT22;8724;51.272;6.554;2023-03-01T09:12:13;5.30;99.90
4701;DHT22;8724;51.272;6.554;2023-03-01T09:14:41;5.30;99.90
4701;DHT22;8724;51.272;6.554;2023-03-01T09:17:11;5.40;99.90
4701;DHT22;8724;51.272;6.554;2023-03-01T09:19:39;5.40;99.90
4701;DHT22;8724;51.272;6.554;2023-03-01T09:22:08;5.40;99.90
4701;DHT22;8724;51.272;6.554;2023-03-01T09:24:36;5.40;99.90
4701;DHT22;8724;51.272;6.554;2023-03-01T09:27:05;5.40;99.90
4701;DHT22;8724;51.272;6.554;2023-03-01T09:29:35;5.50;99.90
4701;DHT22;8724;51.272;6.554;2023-03-01T09:32:04;5.50;99.90
4701;DHT22;8724;51.272;6.554;2023-03-01T09:34:35;5.50;99.90
4701;DHT22;8724;51.272;6.554;2023-03-01T09:37:24;5.60;99.90
4701;DHT22;8724;51.272;6.554;2023-03-01T09:39:52;5.70;99.90
4701;DHT22;8724;51.272;6.554;2023-03-01T09:42:21;5.70;99.90
4701;DHT22;8724;51.272;6.554;2023-03-01T09:44:52;5.60;99.90
4701;DHT22;8724;51.272;6.554;2023-03-01T09:47:25;5.70;99.90
4701;DHT22;8724;51.272;6.554;2023-03-01T09:50:02;5.70;99.90
4701;DHT22;8724;51.272;6.554;2023-03-01T09:52:38;5.70;99.90
4701;DHT22;8724;51.272;6.554;2023-03-01T09:55:11;5.70;99.90
4701;DHT22;8724;51.272;6.554;2023-03-01T09:57:46;5.80;99.90
4701;DHT22;8724;51.272;6.554;2023-03-01T10:00:36;5.80;99.90
4701;DHT22;8724;51.272;6.554;2023-03-01T10:03:13;5.80;99.90
4701;DHT22;8724;51.272;6.554;2023-03-01T10:06:04;5.80;99.90
4701;DHT22;8724;51.272;6.554;2023-03-01T10:08:42;5.80;99.90
4701;DHT22;8724;51.272;6.554;2023-03-01T10:11:20;5.80;99.90
4701;DHT22;8724;51.272;6.554;2023-03-01T10:14:04;5.80;99.90
4701;DHT22;8724;51.272;6.554;2023-03-01T10:16:40;6.00;99.90
4701;DHT22;8724;51.272;6.554;2023-03-01T10:19:14;5.80;99.90
4701;DHT22;8724;51.272;6.554;2023-03-01T10:21:45;5.90;99.90
4701;DHT22;8724;51.272;6.554;2023-03-01T10:24:15;5.90;99.90
4701;DHT22;8724;51.272;6.554;2023-03-01T10:26:51;5.90;99.90
4701;DHT22;8724;51.272;6.554;2023-03-01T10:29:25;5.90;99.90
4701;DHT22;8724;51.272;6.554;2023-03-01T10:31:54;5.90;99.90
4701;DHT22;8724;51.272;6.554;2023-03-01T10:34:28;6.00;99.90
4701;DHT22;8724;51.272;6.554;2023-03-01T10:37:01;6.00;99.90
4701;DHT22;8724;51.272;6.554;2023-03-01T10:39:36;6.00;99.90
4701;DHT22;8724;51.272;6.554;2023-03-01T10:42:05;6.00;99.90
4701;DHT22;8724;51.272;6.554;2023-03-01T10:44:48;6.10;99.90
4701;DHT22;8724;51.272;6.554;2023-03-01T10:47:20;6.10;99.90
4701;DHT22;8724;51.272;6.554;2023-03-01T10:49:54;6.10;99.90
4701;DHT22;8724;51.272;6.554;2023-03-01T10:52:27;6.10;99.90
4701;DHT22;8724;51.272;6.554;2023-03-01T10:54:57;6.10;99.90
4701;DHT22;8724;51.272;6.554;2023-03-01T10:57:31;6.10;99.90
4701;DHT22;8724;51.272;6.554;2023-03-01T11:00:30;6.10;99.90
4701;DHT22;8724;51.272;6.554;2023-03-01T11:03:10;6.20;99.90
4701;DHT22;8724;51.272;6.554;2023-03-01T11:05:52;6.20;99.90
4701;DHT22;8724;51.272;6.554;2023-03-01T11:08:34;6.20;99.90
4701;DHT22;8724;51.272;6.554;2023-03-01T11:14:03;6.50;99.90
4701;DHT22;8724;51.272;6.554;2023-03-01T11:16:59;6.30;99.90
4701;DHT22;8724;51.272;6.554;2023-03-01T11:19:27;6.30;99.90
4701;DHT22;8724;51.272;6.554;2023-03-01T11:22:01;6.30;99.90
4701;DHT22;8724;51.272;6.554;2023-03-01T11:24:37;6.30;99.90
4701;DHT22;8724;51.272;6.554;2023-03-01T11:27:16;6.40;99.90
4701;DHT22;8724;51.272;6.554;2023-03-01T11:29:50;6.40;99.90
4701;DHT22;8724;51.272;6.554;2023-03-01T11:32:23;6.40;99.90
4701;DHT22;8724;51.272;6.554;2023-03-01T11:34:57;6.60;99.90
4701;DHT22;8724;51.272;6.554;2023-03-01T11:37:38;6.50;99.90
4701;DHT22;8724;51.272;6.554;2023-03-01T11:40:15;6.50;99.90
4701;DHT22;8724;51.272;6.554;2023-03-01T11:42:59;6.50;99.90
4701;DHT22;8724;51.272;6.554;2023-03-01T11:45:39;6.50;99.90
4701;DHT22;8724;51.272;6.554;2023-03-01T11:48:32;6.60;99.90
4701;DHT22;8724;51.272;6.554;2023-03-01T11:51:24;6.60;99.90
4701;DHT22;8724;51.272;6.554;2023-03-01T11:54:04;6.60;99.90
4701;DHT22;8724;51.272;6.554;2023-03-01T11:56:38;6.70;99.90
4701;DHT22;8724;51.272;6.554;2023-03-01T11:59:33;6.90;99.90
4701;DHT22;8724;51.272;6.554;2023-03-01T12:02:27;6.70;99.90
4701;DHT22;8724;51.272;6.554;2023-03-01T12:05:24;6.70;99.90
4701;DHT22;8724;51.272;6.554;2023-03-01T12:08:01;6.80;99.90
4701;DHT22;8724;51.272;6.554;2023-03-01T12:10:42;6.80;99.90
4701;DHT22;8724;51.272;6.554;2023-03-01T12:13:35;6.90;99.90
4701;DHT22;8724;51.272;6.554;2023-03-01T12:16:29;6.90;99.90
4701;DHT22;8724;51.272;6.554;2023-03-01T12:19:28;6.90;99.90
4701;DHT22;8724;51.272;6.554;2023-03-01T12:22:09;7.00;99.90
4701;DHT22;8724;51.272;6.554;2023-03-01T12:24:54;7.00;99.90
4701;DHT22;8724;51.272;6.554;2023-03-01T12:27:42;7.00;99.90
4701;DHT22;8724;51.272;6.554;2023-03-01T12:30:25;7.10;99.90
4701;DHT22;8724;51.272;6.554;2023-03-01T12:33:07;7.10;99.90
4701;DHT22;8724;51.272;6.554;2023-03-01T12:35:54;7.10;99.90
4701;DHT22;8724;51.272;6.554;2023-03-01T12:38:33;7.20;99.90
4701;DHT22;8724;51.272;6.554;2023-03-01T12:41:33;7.20;99.90
4701;DHT22;8724;51.272;6.554;2023-03-01T12:44:28;7.20;99.90
4701;DHT22;8724;51.272;6.554;2023-03-01T12:47:07;7.30;99.90
4701;DHT22;8724;51.272;6.554;2023-03-01T12:49:41;7.30;99.90
4701;DHT22;8724;51.272;6.554;2023-03-01T12:52:15;7.30;99.90
4701;DHT22;8724;51.272;6.554;2023-03-01T12:54:45;7.30;99.90
4701;DHT22;8724;51.272;6.554;2023-03-01T12:57:20;7.40;99.90
4701;DHT22;8724;51.272;6.554;2023-03-01T13:00:02;7.40;99.90
4701;DHT22;8724;51.272;6.554;2023-03-01T13:02:41;7.50;99.90
4701;DHT22;8724;51.272;6.554;2023-03-01T13:05:30;7.50;99.90
4701;DHT22;8724;51.272;6.554;2023-03-01T13:08:07;7.50;99.90
4701;DHT22;8724;51.272;6.554;2023-03-01T13:10:43;7.50;99.90
4701;DHT22;8724;51.272;6.554;2023-03-01T13:13:18;7.50;99.90
4701;DHT22;8724;51.272;6.554;2023-03-01T13:15:47;7.60;99.90
4701;DHT22;8724;51.272;6.554;2023-03-01T13:18:30;7.60;99.90
4701;DHT22;8724;51.272;6.554;2023-03-01T13:21:03;7.60;99.90
4701;DHT22;8724;51.272;6.554;2023-03-01T13:23:37;7.60;99.90
4701;DHT22;8724;51.272;6.554;2023-03-01T13:26:14;7.60;99.90
4701;DHT22;8724;51.272;6.554;2023-03-01T13:28:54;7.70;99.90
4701;DHT22;8724;51.272;6.554;2023-03-01T13:31:55;7.70;99.90
4701;DHT22;8724;51.272;6.554;2023-03-01T13:34:48;7.70;99.90
4701;DHT22;8724;51.272;6.554;2023-03-01T13:37:26;7.70;99.90
4701;DHT22;8724;51.272;6.554;2023-03-01T13:39:58;7.80;99.90
4701;DHT22;8724;51.272;6.554;2023-03-01T13:42:42;7.90;99.90
4701;DHT22;8724;51.272;6.554;2023-03-01T13:45:36;7.80;99.90
4701;DHT22;8724;51.272;6.554;2023-03-01T13:48:10;7.80;99.90
4701;DHT22;8724;51.272;6.554;2023-03-01T13:50:46;7.80;99.90
4701;DHT22;8724;51.272;6.554;2023-03-01T13:53:18;7.80;99.90
4701;DHT22;8724;51.272;6.554;2023-03-01T13:55:49;7.80;99.90
4701;DHT22;8724;51.272;6.554;2023-03-01T13:58:22;7.90;99.90
4701;DHT22;8724;51.272;6.554;2023-03-01T14:00:57;7.90;99.90
4701;DHT22;8724;51.272;6.554;2023-03-01T14:03:25;7.90;99.90
4701;DHT22;8724;51.272;6.554;2023-03-01T14:06:01;7.90;99.90
4701;DHT22;8724;51.272;6.554;2023-03-01T14:08:41;8.00;99.90
4701;DHT22;8724;51.272;6.554;2023-03-01T14:14:44;8.00;99.90
4701;DHT22;8724;51.272;6.554;2023-03-01T14:17:37;8.00;99.90
4701;DHT22;8724;51.272;6.554;2023-03-01T14:20:12;8.10;99.90
4701;DHT22;8724;51.272;6.554;2023-03-01T14:22:44;8.10;99.90
4701;DHT22;8724;51.272;6.554;2023-03-01T14:25:21;8.10;99.90
4701;DHT22;8724;51.272;6.554;2023-03-01T14:27:58;8.10;99.60
4701;DHT22;8724;51.272;6.554;2023-03-01T14:30:32;8.10;99.70
4701;DHT22;8724;51.272;6.554;2023-03-01T14:33:03;8.20;99.90
4701;DHT22;8724;51.272;6.554;2023-03-01T14:35:35;8.20;99.90
4701;DHT22;8724;51.272;6.554;2023-03-01T14:38:05;8.20;99.90
4701;DHT22;8724;51.272;6.554;2023-03-01T14:40:35;8.30;99.90
4701;DHT22;8724;51.272;6.554;2023-03-01T14:43:10;8.30;99.90
4701;DHT22;8724;51.272;6.554;2023-03-01T14:45:39;8.30;99.90
4701;DHT22;8724;51.272;6.554;2023-03-01T14:48:15;8.30;99.90
4701;DHT22;8724;51.272;6.554;2023-03-01T14:50:45;8.30;99.80
4701;DHT22;8724;51.272;6.554;2023-03-01T14:53:18;8.70;99.90
4701;DHT22;8724;51.272;6.554;2023-03-01T14:55:50;8.40;99.90
4701;DHT22;8724;51.272;6.554;2023-03-01T14:58:22;8.40;99.90
4701;DHT22;8724;51.272;6.554;2023-03-01T15:00:53;8.40;99.60
4701;DHT22;8724;51.272;6.554;2023-03-01T15:03:28;8.40;99.70
4701;DHT22;8724;51.272;6.554;2023-03-01T15:06:00;8.40;99.90
4701;DHT22;8724;51.272;6.554;2023-03-01T15:08:32;8.40;99.90
4701;DHT22;8724;51.272;6.554;2023-03-01T15:11:04;8.50;99.90
4701;DHT22;8724;51.272;6.554;2023-03-01T15:13:35;8.50;99.90
4701;DHT22;8724;51.272;6.554;2023-03-01T15:16:09;8.50;99.90
4701;DHT22;8724;51.272;6.554;2023-03-01T15:18:44;8.60;99.90
4701;DHT22;8724;51.272;6.554;2023-03-01T15:21:19;8.20;99.90
4701;DHT22;8724;51.272;6.554;2023-03-01T15:23:53;8.30;99.90
4701;DHT22;8724;51.272;6.554;2023-03-01T15:26:29;8.60;99.90
4701;DHT22;8724;51.272;6.554;2023-03-01T15:28:59;8.60;99.90
4701;DHT22;8724;51.272;6.554;2023-03-01T15:31:29;9.00;99.90
4701;DHT22;8724;51.272;6.554;2023-03-01T15:34:10;8.60;99.90
4701;DHT22;8724;51.272;6.554;2023-03-01T15:36:43;8.60;99.90
4701;DHT22;8724;51.272;6.554;2023-03-01T15:39:31;8.60;99.80
4701;DHT22;8724;51.272;6.554;2023-03-01T15:42:06;8.60;99.80
4701;DHT22;8724;51.272;6.554;2023-03-01T15:44:36;8.60;99.80
4701;DHT22;8724;51.272;6.554;2023-03-01T15:47:23;8.70;99.90
4701;DHT22;8724;51.272;6.554;2023-03-01T15:49:54;8.70;99.80
4701;DHT22;8724;51.272;6.554;2023-03-01T15:52:25;8.70;99.70
4701;DHT22;8724;51.272;6.554;2023-03-01T15:55:02;8.70;99.80
4701;DHT22;8724;51.272;6.554;2023-03-01T15:57:32;8.70;99.80
4701;DHT22;8724;51.272;6.554;2023-03-01T16:00:00;8.70;99.90
4701;DHT22;8724;51.272;6.554;2023-03-01T16:02:30;8.70;99.90
4701;DHT22;8724;51.272;6.554;2023-03-01T16:04:59;8.70;99.80
4701;DHT22;8724;51.272;6.554;2023-03-01T16:07:27;8.70;99.80
4701;DHT22;8724;51.272;6.554;2023-03-01T16:09:56;8.70;99.60
4701;DHT22;8724;51.272;6.554;2023-03-01T16:12:26;8.90;99.60
4701;DHT22;8724;51.272;6.554;2023-03-01T16:14:54;8.70;99.40
4701;DHT22;8724;51.272;6.554;2023-03-01T16:17:24;8.70;99.30
4701;DHT22;8724;51.272;6.554;2023-03-01T16:19:52;8.70;99.30
4701;DHT22;8724;51.272;6.554;2023-03-01T16:22:21;8.70;99.40
4701;DHT22;8724;51.272;6.554;2023-03-01T16:24:52;8.70;99.40
4701;DHT22;8724;51.272;6.554;2023-03-01T16:27:20;8.70;99.50
4701;DHT22;8724;51.272;6.554;2023-03-01T16:29:50;8.70;99.30
4701;DHT22;8724;51.272;6.554;2023-03-01T16:32:19;8.80;99.40
4701;DHT22;8724;51.272;6.554;2023-03-01T16:34:48;8.70;99.50
4701;DHT22;8724;51.272;6.554;2023-03-01T16:37:16;8.70;99.30
4701;DHT22;8724;51.272;6.554;2023-03-01T16:39:46;8.70;99.30
4701;DHT22;8724;51.272;6.554;2023-03-01T16:42:16;8.70;99.40
4701;DHT22;8724;51.272;6.554;2023-03-01T16:44:45;8.70;99.50
4701;DHT22;8724;51.272;6.554;2023-03-01T16:47:15;8.70;99.50
4701;DHT22;8724;51.272;6.554;2023-03-01T16:49:43;8.70;99.60
4701;DHT22;8724;51.272;6.554;2023-03-01T16:52:12;8.60;99.70
4701;DHT22;8724;51.272;6.554;2023-03-01T16:54:40;8.60;99.90
4701;DHT22;8724;51.272;6.554;2023-03-01T16:57:09;8.30;99.90
4701;DHT22;8724;51.272;6.554;2023-03-01T16:59:37;8.60;99.90